Arklow Rogue — EIGD — position and weather

sailwx.info

Track history (hours):
 
Tides and Currents Weather Stations Pressure Air Temp Water Temp Dewpoint Dewpoint Depression Visibility Wind Speed Wind Dir Waves Ship Positions

Arklow Rogue

Last reported at 2017-Dec-10 14:58 UTC. Time now 2017-Dec-12 14:10 UTC.
Position N 48°11' W 005°46'.

Length 90 m; draft 3.4 m.

Type: Cargo ship. MMSI: 250000960.

Date/timePositionNaut miles runAvg speedWind from/ knotsBaromVisibWave heightAir tempDewpointWater temp
2017-Dec-10 14:58N 48°11' W 005°46'9 6.7
2017-Dec-10 13:38N 48°04' W 005°39'258 9.3
2017-Dec-09 09:55N 44°26' W 002°20'410.9
2017-Dec-09 09:30N 44°22' W 002°16'510.8
2017-Dec-09 09:00N 44°17' W 002°12'510.8
2017-Dec-09 08:30N 44°13' W 002°08'510.9
2017-Dec-09 08:01N 44°08' W 002°04'611.0
2017-Dec-09 07:30N 44°03' W 002°01'510.7
2017-Dec-09 07:01N 43°59' W 001°57'510.7
2017-Dec-09 06:31N 43°54' W 001°53'510.7
2017-Dec-09 06:00N 43°50' W 001°49'510.8
2017-Dec-09 05:30N 43°45' W 001°44'510.8
2017-Dec-09 05:00N 43°41' W 001°40'611.2
2017-Dec-09 04:30N 43°36' W 001°36'510.3
2017-Dec-09 04:00N 43°32' W 001°32'2 3.2
2017-Dec-09 03:30N 43°32' W 001°30'0 0.0
2017-Dec-09 03:00N 43°32' W 001°30'0 0.0
2017-Dec-09 02:30N 43°32' W 001°30'0 0.0
2017-Dec-09 02:00N 43°32' W 001°30'0 0.0
2017-Dec-09 01:30N 43°32' W 001°30'0 0.0
2017-Dec-09 00:57N 43°32' W 001°30'0 0.0
2017-Dec-09 00:30N 43°32' W 001°30'0 0.0
2017-Dec-09 00:00N 43°32' W 001°30'0 0.0
2017-Dec-08 23:30N 43°32' W 001°30'0 0.0
2017-Dec-08 23:00N 43°32' W 001°30'0 0.0
2017-Dec-08 22:30N 43°32' W 001°30'0 0.0
2017-Dec-08 22:00N 43°32' W 001°30'0 0.0
2017-Dec-08 21:30N 43°32' W 001°30'0 0.0
2017-Dec-08 21:00N 43°32' W 001°30'0 0.0
2017-Dec-08 20:30N 43°32' W 001°30'0 0.0
2017-Dec-08 20:00N 43°32' W 001°30'0 0.0
2017-Dec-08 19:30N 43°32' W 001°30'0 0.0
2017-Dec-08 19:00N 43°32' W 001°30'0 0.0
2017-Dec-08 18:30N 43°32' W 001°30'0 0.0
2017-Dec-08 17:57N 43°32' W 001°30'0 0.0
2017-Dec-08 17:30N 43°32' W 001°30'0 0.0
2017-Dec-08 16:54N 43°32' W 001°30'0 0.0
2017-Dec-08 16:30N 43°32' W 001°30'0 0.0
2017-Dec-08 16:00N 43°32' W 001°30'0 0.0
2017-Dec-08 15:27N 43°32' W 001°30'0 0.0
2017-Dec-08 15:00N 43°32' W 001°30'0 0.0
2017-Dec-08 14:30N 43°32' W 001°30'0 0.0
2017-Dec-08 14:00N 43°32' W 001°30'0 0.0
2017-Dec-08 13:27N 43°32' W 001°30'0 0.0
2017-Dec-08 13:00N 43°32' W 001°30'0 0.0
2017-Dec-08 12:27N 43°32' W 001°30'0 0.0
2017-Dec-08 12:00N 43°32' W 001°30'0 0.0
2017-Dec-08 11:30N 43°32' W 001°30'0 0.0
2017-Dec-08 11:00N 43°32' W 001°30'0 0.0
2017-Dec-08 10:30N 43°32' W 001°30'0 0.0
2017-Dec-08 10:00N 43°32' W 001°30'0 0.0
2017-Dec-08 09:30N 43°32' W 001°30'0 0.0
2017-Dec-08 09:00N 43°32' W 001°30'0 0.0
2017-Dec-08 08:30N 43°32' W 001°30'0 0.0
2017-Dec-08 08:00N 43°32' W 001°30'0 0.0
2017-Dec-08 07:30N 43°32' W 001°30'0 0.0
2017-Dec-08 07:00N 43°32' W 001°30'0 0.0
2017-Dec-08 06:27N 43°32' W 001°30'0 0.0
2017-Dec-08 06:00N 43°32' W 001°30'0 0.0
2017-Dec-08 05:30N 43°32' W 001°30'0 0.0
2017-Dec-08 05:00N 43°32' W 001°30'0 0.0
2017-Dec-08 04:30N 43°32' W 001°30'2 3.4
2017-Dec-08 04:01N 43°32' W 001°32'2 4.4
2017-Dec-08 03:30N 43°33' W 001°35'510.0
2017-Dec-08 03:01N 43°33' W 001°42'1 2.8
2017-Dec-08 02:31N 43°33' W 001°40'2 3.2
2017-Dec-08 02:00N 43°33' W 001°38'1 2.1
2017-Dec-08 01:31N 43°33' W 001°39'4 8.0
2017-Dec-08 01:00N 43°31' W 001°44'5 9.3
2017-Dec-08 00:30N 43°27' W 001°48'5 9.7
2017-Dec-08 00:01N 43°23' W 001°52'4 8.3
2017-Dec-07 23:30N 43°20' W 001°56'1 2.4
2017-Dec-07 23:00N 43°19' W 001°54'0 0.0
2017-Dec-07 22:29N 43°19' W 001°54'0 0.0
2017-Dec-07 21:59N 43°19' W 001°54'0 0.0
2017-Dec-07 21:29N 43°19' W 001°54'0 0.0
2017-Dec-07 20:59N 43°19' W 001°54'0 0.0
2017-Dec-07 20:29N 43°19' W 001°54'0 0.0
2017-Dec-07 19:59N 43°19' W 001°54'0 0.0
2017-Dec-07 19:29N 43°19' W 001°54'0 0.0
2017-Dec-07 18:59N 43°19' W 001°54'0 0.0
2017-Dec-07 18:29N 43°19' W 001°54'0 0.0
2017-Dec-07 17:32N 43°19' W 001°54'0 0.0
2017-Dec-07 17:29N 43°19' W 001°54'0 0.0
2017-Dec-07 16:59N 43°19' W 001°54'0 0.0
2017-Dec-07 16:29N 43°19' W 001°54'0 0.0
2017-Dec-07 15:59N 43°19' W 001°54'0 0.0
2017-Dec-07 15:29N 43°19' W 001°54'0 0.0
2017-Dec-07 14:59N 43°19' W 001°54'0 0.0
2017-Dec-07 14:26N 43°19' W 001°54'0 0.0
2017-Dec-07 13:59N 43°19' W 001°54'0 0.0
2017-Dec-07 13:29N 43°19' W 001°54'0 0.0
2017-Dec-07 12:59N 43°19' W 001°54'0 0.0
2017-Dec-07 12:29N 43°19' W 001°54'0 0.0
2017-Dec-07 11:56N 43°19' W 001°54'0 0.0
2017-Dec-07 11:26N 43°19' W 001°54'0 0.0
2017-Dec-07 10:59N 43°19' W 001°54'0 0.0
2017-Dec-07 10:29N 43°19' W 001°54'0 0.0
2017-Dec-07 09:56N 43°19' W 001°54'0 0.0
2017-Dec-07 09:29N 43°19' W 001°54'0 0.0
2017-Dec-07 08:59N 43°19' W 001°54'0 0.0
2017-Dec-07 08:29N 43°19' W 001°54'0 0.0
2017-Dec-07 07:53N 43°19' W 001°54'0 0.0
2017-Dec-07 07:29N 43°19' W 001°54'0 0.0
2017-Dec-07 06:59N 43°19' W 001°54'0 0.0
2017-Dec-07 06:29N 43°19' W 001°54'0 0.0
2017-Dec-07 05:56N 43°19' W 001°54'0 0.0
2017-Dec-07 05:29N 43°19' W 001°54'0 0.0
2017-Dec-07 04:50N 43°19' W 001°54'0 0.0
2017-Dec-07 04:29N 43°19' W 001°54'0 0.0
2017-Dec-07 03:59N 43°19' W 001°54'0 0.0
2017-Dec-07 03:05N 43°19' W 001°54'0 0.0
2017-Dec-07 02:59N 43°19' W 001°54'0 0.0
2017-Dec-07 02:29N 43°19' W 001°54'0 0.0
2017-Dec-07 01:59N 43°19' W 001°54'0 0.0
2017-Dec-07 01:29N 43°19' W 001°54'0 0.0
2017-Dec-07 00:59N 43°19' W 001°54'0 0.0
2017-Dec-07 00:26N 43°19' W 001°54'0 0.0
2017-Dec-06 23:59N 43°19' W 001°54'0 0.0
2017-Dec-06 23:29N 43°19' W 001°54'0 0.0
2017-Dec-06 22:59N 43°19' W 001°54'0 0.0
2017-Dec-06 22:29N 43°19' W 001°54'0 0.0
2017-Dec-06 21:59N 43°19' W 001°54'0 0.0
2017-Dec-06 21:29N 43°19' W 001°54'0 0.0
2017-Dec-06 20:56N 43°19' W 001°54'  
2017-Dec-03 12:47N 53°33' W 003°58'412.8
2017-Dec-03 12:30N 53°33' W 003°52'612.2
2017-Dec-03 12:00N 53°33' W 003°42'611.8
2017-Dec-03 11:30N 53°33' W 003°32'510.5
2017-Dec-03 11:00N 53°33' W 003°23'4 8.3
2017-Dec-03 10:30N 53°32' W 003°17'510.5
2017-Dec-03 10:00N 53°32' W 003°08'5 9.9
2017-Dec-03 09:30N 53°28' W 003°03'4 7.4
2017-Dec-03 09:00N 53°24' W 003°00'4 7.1
2017-Dec-03 08:30N 53°21' W 002°58'2 3.4
2017-Dec-03 07:59N 53°19' W 002°57'0 0.0
2017-Dec-03 07:30N 53°19' W 002°57'0 0.0
2017-Dec-03 07:00N 53°19' W 002°57'1 1.1
2017-Dec-03 06:30N 53°19' W 002°56'2 5.0
2017-Dec-03 06:00N 53°17' W 002°53'2 3.4
2017-Dec-03 05:30N 53°17' W 002°50'3 6.2
2017-Dec-03 05:00N 53°18' W 002°45'2 4.3
2017-Dec-03 04:30N 53°21' W 002°45'2 4.3
2017-Dec-03 04:00N 53°21' W 002°41'3 6.5
2017-Dec-03 03:28N 53°22' W 002°36'2 3.5
2017-Dec-03 02:54N 53°23' W 002°33'0 1.0
2017-Dec-03 02:30N 53°23' W 002°32'7 4.0
2017-Dec-03 00:44N 53°28' W 002°23'0 0.9
2017-Dec-03 00:13N 53°28' W 002°23'1 3.1
2017-Dec-02 23:57N 53°28' W 002°21'  
2017-Nov-30 16:52N 53°29' W 002°20'1 2.8
2017-Nov-30 16:28N 53°29' W 002°18'  
Track history (hours):
 
Tides and Currents Weather Stations Pressure Air Temp Water Temp Dewpoint Dewpoint Depression Visibility Wind Speed Wind Dir Waves Ship Positions

Arklow Rogue

Last reported at 2017-Dec-10 14:58 UTC. Time now 2017-Dec-12 14:10 UTC.
Position N 48°11' W 005°46'.

Length 90 m; draft 3.4 m.

Type: Cargo ship. MMSI: 250000960.

Date/timePositionNaut miles runAvg speedWind from/ knotsBaromVisibWave heightAir tempDewpointWater temp
2017-Dec-10 14:58N 48°11' W 005°46'9 6.7
2017-Dec-10 13:38N 48°04' W 005°39'258 9.3
2017-Dec-09 09:55N 44°26' W 002°20'410.9
2017-Dec-09 09:30N 44°22' W 002°16'510.8
2017-Dec-09 09:00N 44°17' W 002°12'510.8
2017-Dec-09 08:30N 44°13' W 002°08'510.9
2017-Dec-09 08:01N 44°08' W 002°04'611.0
2017-Dec-09 07:30N 44°03' W 002°01'510.7
2017-Dec-09 07:01N 43°59' W 001°57'510.7
2017-Dec-09 06:31N 43°54' W 001°53'510.7
2017-Dec-09 06:00N 43°50' W 001°49'510.8
2017-Dec-09 05:30N 43°45' W 001°44'510.8
2017-Dec-09 05:00N 43°41' W 001°40'611.2
2017-Dec-09 04:30N 43°36' W 001°36'510.3
2017-Dec-09 04:00N 43°32' W 001°32'2 3.2
2017-Dec-09 03:30N 43°32' W 001°30'0 0.0
2017-Dec-09 03:00N 43°32' W 001°30'0 0.0
2017-Dec-09 02:30N 43°32' W 001°30'0 0.0
2017-Dec-09 02:00N 43°32' W 001°30'0 0.0
2017-Dec-09 01:30N 43°32' W 001°30'0 0.0
2017-Dec-09 00:57N 43°32' W 001°30'0 0.0
2017-Dec-09 00:30N 43°32' W 001°30'0 0.0
2017-Dec-09 00:00N 43°32' W 001°30'0 0.0
2017-Dec-08 23:30N 43°32' W 001°30'0 0.0
2017-Dec-08 23:00N 43°32' W 001°30'0 0.0
2017-Dec-08 22:30N 43°32' W 001°30'0 0.0
2017-Dec-08 22:00N 43°32' W 001°30'0 0.0
2017-Dec-08 21:30N 43°32' W 001°30'0 0.0
2017-Dec-08 21:00N 43°32' W 001°30'0 0.0
2017-Dec-08 20:30N 43°32' W 001°30'0 0.0
2017-Dec-08 20:00N 43°32' W 001°30'0 0.0
2017-Dec-08 19:30N 43°32' W 001°30'0 0.0
2017-Dec-08 19:00N 43°32' W 001°30'0 0.0
2017-Dec-08 18:30N 43°32' W 001°30'0 0.0
2017-Dec-08 17:57N 43°32' W 001°30'0 0.0
2017-Dec-08 17:30N 43°32' W 001°30'0 0.0
2017-Dec-08 16:54N 43°32' W 001°30'0 0.0
2017-Dec-08 16:30N 43°32' W 001°30'0 0.0
2017-Dec-08 16:00N 43°32' W 001°30'0 0.0
2017-Dec-08 15:27N 43°32' W 001°30'0 0.0
2017-Dec-08 15:00N 43°32' W 001°30'0 0.0
2017-Dec-08 14:30N 43°32' W 001°30'0 0.0
2017-Dec-08 14:00N 43°32' W 001°30'0 0.0
2017-Dec-08 13:27N 43°32' W 001°30'0 0.0
2017-Dec-08 13:00N 43°32' W 001°30'0 0.0
2017-Dec-08 12:27N 43°32' W 001°30'0 0.0
2017-Dec-08 12:00N 43°32' W 001°30'0 0.0
2017-Dec-08 11:30N 43°32' W 001°30'0 0.0
2017-Dec-08 11:00N 43°32' W 001°30'0 0.0
2017-Dec-08 10:30N 43°32' W 001°30'0 0.0
2017-Dec-08 10:00N 43°32' W 001°30'0 0.0
2017-Dec-08 09:30N 43°32' W 001°30'0 0.0
2017-Dec-08 09:00N 43°32' W 001°30'0 0.0
2017-Dec-08 08:30N 43°32' W 001°30'0 0.0
2017-Dec-08 08:00N 43°32' W 001°30'0 0.0
2017-Dec-08 07:30N 43°32' W 001°30'0 0.0
2017-Dec-08 07:00N 43°32' W 001°30'0 0.0
2017-Dec-08 06:27N 43°32' W 001°30'0 0.0
2017-Dec-08 06:00N 43°32' W 001°30'0 0.0
2017-Dec-08 05:30N 43°32' W 001°30'0 0.0
2017-Dec-08 05:00N 43°32' W 001°30'0 0.0
2017-Dec-08 04:30N 43°32' W 001°30'2 3.4
2017-Dec-08 04:01N 43°32' W 001°32'2 4.4
2017-Dec-08 03:30N 43°33' W 001°35'510.0
2017-Dec-08 03:01N 43°33' W 001°42'1 2.8
2017-Dec-08 02:31N 43°33' W 001°40'2 3.2
2017-Dec-08 02:00N 43°33' W 001°38'1 2.1
2017-Dec-08 01:31N 43°33' W 001°39'4 8.0
2017-Dec-08 01:00N 43°31' W 001°44'5 9.3
2017-Dec-08 00:30N 43°27' W 001°48'5 9.7
2017-Dec-08 00:01N 43°23' W 001°52'4 8.3
2017-Dec-07 23:30N 43°20' W 001°56'1 2.4
2017-Dec-07 23:00N 43°19' W 001°54'0 0.0
2017-Dec-07 22:29N 43°19' W 001°54'0 0.0
2017-Dec-07 21:59N 43°19' W 001°54'0 0.0
2017-Dec-07 21:29N 43°19' W 001°54'0 0.0
2017-Dec-07 20:59N 43°19' W 001°54'0 0.0
2017-Dec-07 20:29N 43°19' W 001°54'0 0.0
2017-Dec-07 19:59N 43°19' W 001°54'0 0.0
2017-Dec-07 19:29N 43°19' W 001°54'0 0.0
2017-Dec-07 18:59N 43°19' W 001°54'0 0.0
2017-Dec-07 18:29N 43°19' W 001°54'0 0.0
2017-Dec-07 17:32N 43°19' W 001°54'0 0.0
2017-Dec-07 17:29N 43°19' W 001°54'0 0.0
2017-Dec-07 16:59N 43°19' W 001°54'0 0.0
2017-Dec-07 16:29N 43°19' W 001°54'0 0.0
2017-Dec-07 15:59N 43°19' W 001°54'0 0.0
2017-Dec-07 15:29N 43°19' W 001°54'0 0.0
2017-Dec-07 14:59N 43°19' W 001°54'0 0.0
2017-Dec-07 14:26N 43°19' W 001°54'0 0.0
2017-Dec-07 13:59N 43°19' W 001°54'0 0.0
2017-Dec-07 13:29N 43°19' W 001°54'0 0.0
2017-Dec-07 12:59N 43°19' W 001°54'0 0.0
2017-Dec-07 12:29N 43°19' W 001°54'0 0.0
2017-Dec-07 11:56N 43°19' W 001°54'0 0.0
2017-Dec-07 11:26N 43°19' W 001°54'0 0.0
2017-Dec-07 10:59N 43°19' W 001°54'0 0.0
2017-Dec-07 10:29N 43°19' W 001°54'0 0.0
2017-Dec-07 09:56N 43°19' W 001°54'0 0.0
2017-Dec-07 09:29N 43°19' W 001°54'0 0.0
2017-Dec-07 08:59N 43°19' W 001°54'0 0.0
2017-Dec-07 08:29N 43°19' W 001°54'0 0.0
2017-Dec-07 07:53N 43°19' W 001°54'0 0.0
2017-Dec-07 07:29N 43°19' W 001°54'0 0.0
2017-Dec-07 06:59N 43°19' W 001°54'0 0.0
2017-Dec-07 06:29N 43°19' W 001°54'0 0.0
2017-Dec-07 05:56N 43°19' W 001°54'0 0.0
2017-Dec-07 05:29N 43°19' W 001°54'0 0.0
2017-Dec-07 04:50N 43°19' W 001°54'0 0.0
2017-Dec-07 04:29N 43°19' W 001°54'0 0.0
2017-Dec-07 03:59N 43°19' W 001°54'0 0.0
2017-Dec-07 03:05N 43°19' W 001°54'0 0.0
2017-Dec-07 02:59N 43°19' W 001°54'0 0.0
2017-Dec-07 02:29N 43°19' W 001°54'0 0.0
2017-Dec-07 01:59N 43°19' W 001°54'0 0.0
2017-Dec-07 01:29N 43°19' W 001°54'0 0.0
2017-Dec-07 00:59N 43°19' W 001°54'0 0.0
2017-Dec-07 00:26N 43°19' W 001°54'0 0.0
2017-Dec-06 23:59N 43°19' W 001°54'0 0.0
2017-Dec-06 23:29N 43°19' W 001°54'0 0.0
2017-Dec-06 22:59N 43°19' W 001°54'0 0.0
2017-Dec-06 22:29N 43°19' W 001°54'0 0.0
2017-Dec-06 21:59N 43°19' W 001°54'0 0.0
2017-Dec-06 21:29N 43°19' W 001°54'0 0.0
2017-Dec-06 20:56N 43°19' W 001°54'  
2017-Dec-03 12:47N 53°33' W 003°58'412.8
2017-Dec-03 12:30N 53°33' W 003°52'612.2
2017-Dec-03 12:00N 53°33' W 003°42'611.8
2017-Dec-03 11:30N 53°33' W 003°32'510.5
2017-Dec-03 11:00N 53°33' W 003°23'4 8.3
2017-Dec-03 10:30N 53°32' W 003°17'510.5
2017-Dec-03 10:00N 53°32' W 003°08'5 9.9
2017-Dec-03 09:30N 53°28' W 003°03'4 7.4
2017-Dec-03 09:00N 53°24' W 003°00'4 7.1
2017-Dec-03 08:30N 53°21' W 002°58'2 3.4
2017-Dec-03 07:59N 53°19' W 002°57'0 0.0
2017-Dec-03 07:30N 53°19' W 002°57'0 0.0
2017-Dec-03 07:00N 53°19' W 002°57'1 1.1
2017-Dec-03 06:30N 53°19' W 002°56'2 5.0
2017-Dec-03 06:00N 53°17' W 002°53'2 3.4
2017-Dec-03 05:30N 53°17' W 002°50'3 6.2
2017-Dec-03 05:00N 53°18' W 002°45'2 4.3
2017-Dec-03 04:30N 53°21' W 002°45'2 4.3
2017-Dec-03 04:00N 53°21' W 002°41'3 6.5
2017-Dec-03 03:28N 53°22' W 002°36'2 3.5
2017-Dec-03 02:54N 53°23' W 002°33'0 1.0
2017-Dec-03 02:30N 53°23' W 002°32'7 4.0
2017-Dec-03 00:44N 53°28' W 002°23'0 0.9
2017-Dec-03 00:13N 53°28' W 002°23'1 3.1
2017-Dec-02 23:57N 53°28' W 002°21'  
2017-Nov-30 16:52N 53°29' W 002°20'1 2.8
2017-Nov-30 16:28N 53°29' W 002°18'  

Dump ship's entire track history